sensor_id;sensor_type;location;lat;lon;timestamp;P1;durP1;ratioP1;P2;durP2;ratioP2
26620;SDS011;14253;44.840;10.444;2023-07-09T00:01:15;12.40;;;8.27;;
26620;SDS011;14253;44.840;10.444;2023-07-09T00:03:43;10.75;;;7.78;;
26620;SDS011;14253;44.840;10.444;2023-07-09T00:06:16;9.65;;;7.40;;
26620;SDS011;14253;44.840;10.444;2023-07-09T00:08:44;11.88;;;8.05;;
26620;SDS011;14253;44.840;10.444;2023-07-09T00:11:13;11.90;;;7.50;;
26620;SDS011;14253;44.840;10.444;2023-07-09T00:13:40;11.40;;;7.00;;
26620;SDS011;14253;44.840;10.444;2023-07-09T00:16:16;13.65;;;7.38;;
26620;SDS011;14253;44.840;10.444;2023-07-09T00:18:46;16.27;;;8.15;;
26620;SDS011;14253;44.840;10.444;2023-07-09T00:21:14;10.63;;;6.85;;
26620;SDS011;14253;44.840;10.444;2023-07-09T00:23:43;11.50;;;6.60;;
26620;SDS011;14253;44.840;10.444;2023-07-09T00:26:10;11.85;;;7.18;;
26620;SDS011;14253;44.840;10.444;2023-07-09T00:28:42;11.77;;;7.80;;
26620;SDS011;14253;44.840;10.444;2023-07-09T00:31:10;11.63;;;7.22;;
26620;SDS011;14253;44.840;10.444;2023-07-09T00:33:40;17.35;;;8.27;;
26620;SDS011;14253;44.840;10.444;2023-07-09T00:36:20;15.70;;;7.93;;
26620;SDS011;14253;44.840;10.444;2023-07-09T00:38:54;13.80;;;8.38;;
26620;SDS011;14253;44.840;10.444;2023-07-09T00:41:24;18.40;;;8.07;;
26620;SDS011;14253;44.840;10.444;2023-07-09T00:43:51;15.77;;;8.52;;
26620;SDS011;14253;44.840;10.444;2023-07-09T00:49:00;9.65;;;6.88;;
26620;SDS011;14253;44.840;10.444;2023-07-09T00:51:34;17.08;;;8.68;;
26620;SDS011;14253;44.840;10.444;2023-07-09T00:54:11;11.73;;;7.97;;
26620;SDS011;14253;44.840;10.444;2023-07-09T00:56:55;14.00;;;8.18;;
26620;SDS011;14253;44.840;10.444;2023-07-09T00:59:27;15.48;;;8.15;;
26620;SDS011;14253;44.840;10.444;2023-07-09T01:01:57;15.20;;;8.63;;
26620;SDS011;14253;44.840;10.444;2023-07-09T01:04:25;11.38;;;7.38;;
26620;SDS011;14253;44.840;10.444;2023-07-09T01:06:53;12.80;;;8.18;;
26620;SDS011;14253;44.840;10.444;2023-07-09T01:09:24;13.38;;;7.80;;
26620;SDS011;14253;44.840;10.444;2023-07-09T01:11:51;13.10;;;8.63;;
26620;SDS011;14253;44.840;10.444;2023-07-09T01:14:21;11.97;;;8.17;;
26620;SDS011;14253;44.840;10.444;2023-07-09T01:16:58;11.60;;;8.48;;
26620;SDS011;14253;44.840;10.444;2023-07-09T01:19:30;13.30;;;9.35;;
26620;SDS011;14253;44.840;10.444;2023-07-09T01:22:08;14.35;;;8.05;;
26620;SDS011;14253;44.840;10.444;2023-07-09T01:24:50;11.25;;;7.70;;
26620;SDS011;14253;44.840;10.444;2023-07-09T01:27:30;14.07;;;8.57;;
26620;SDS011;14253;44.840;10.444;2023-07-09T01:30:15;12.40;;;8.38;;
26620;SDS011;14253;44.840;10.444;2023-07-09T01:32:51;14.98;;;7.78;;
26620;SDS011;14253;44.840;10.444;2023-07-09T01:35:22;11.40;;;7.20;;
26620;SDS011;14253;44.840;10.444;2023-07-09T01:37:49;10.30;;;7.68;;
26620;SDS011;14253;44.840;10.444;2023-07-09T01:40:16;13.68;;;7.80;;
26620;SDS011;14253;44.840;10.444;2023-07-09T01:42:44;11.80;;;8.23;;
26620;SDS011;14253;44.840;10.444;2023-07-09T01:45:10;10.63;;;7.68;;
26620;SDS011;14253;44.840;10.444;2023-07-09T01:47:38;9.88;;;7.55;;
26620;SDS011;14253;44.840;10.444;2023-07-09T01:50:08;11.70;;;7.53;;
26620;SDS011;14253;44.840;10.444;2023-07-09T01:52:34;11.50;;;7.22;;
26620;SDS011;14253;44.840;10.444;2023-07-09T01:55:03;10.40;;;8.10;;
26620;SDS011;14253;44.840;10.444;2023-07-09T01:57:30;12.43;;;8.07;;
26620;SDS011;14253;44.840;10.444;2023-07-09T02:00:03;14.88;;;7.85;;
26620;SDS011;14253;44.840;10.444;2023-07-09T02:02:44;10.70;;;7.53;;
26620;SDS011;14253;44.840;10.444;2023-07-09T02:05:12;10.77;;;7.65;;
26620;SDS011;14253;44.840;10.444;2023-07-09T02:07:40;10.30;;;7.72;;
26620;SDS011;14253;44.840;10.444;2023-07-09T02:10:06;10.60;;;7.85;;
26620;SDS011;14253;44.840;10.444;2023-07-09T02:12:32;11.07;;;7.72;;
26620;SDS011;14253;44.840;10.444;2023-07-09T02:14:58;10.35;;;7.28;;
26620;SDS011;14253;44.840;10.444;2023-07-09T02:17:24;9.32;;;7.60;;
26620;SDS011;14253;44.840;10.444;2023-07-09T02:19:50;10.07;;;7.07;;
26620;SDS011;14253;44.840;10.444;2023-07-09T02:22:16;9.77;;;7.22;;
26620;SDS011;14253;44.840;10.444;2023-07-09T02:24:44;12.23;;;7.15;;
26620;SDS011;14253;44.840;10.444;2023-07-09T02:27:13;12.90;;;7.28;;
26620;SDS011;14253;44.840;10.444;2023-07-09T02:29:41;11.45;;;7.10;;
26620;SDS011;14253;44.840;10.444;2023-07-09T02:32:07;10.77;;;7.70;;
26620;SDS011;14253;44.840;10.444;2023-07-09T02:34:34;10.98;;;7.80;;
26620;SDS011;14253;44.840;10.444;2023-07-09T02:37:00;12.00;;;7.95;;
26620;SDS011;14253;44.840;10.444;2023-07-09T02:39:26;10.60;;;7.85;;
26620;SDS011;14253;44.840;10.444;2023-07-09T02:41:52;15.63;;;8.43;;
26620;SDS011;14253;44.840;10.444;2023-07-09T02:44:19;13.15;;;9.02;;
26620;SDS011;14253;44.840;10.444;2023-07-09T02:46:45;12.98;;;8.27;;
26620;SDS011;14253;44.840;10.444;2023-07-09T02:49:13;11.32;;;7.82;;
26620;SDS011;14253;44.840;10.444;2023-07-09T02:51:39;10.05;;;7.07;;
26620;SDS011;14253;44.840;10.444;2023-07-09T02:54:06;16.70;;;8.40;;
26620;SDS011;14253;44.840;10.444;2023-07-09T02:56:33;11.10;;;7.43;;
26620;SDS011;14253;44.840;10.444;2023-07-09T02:58:59;11.38;;;7.57;;
26620;SDS011;14253;44.840;10.444;2023-07-09T03:01:25;11.43;;;7.90;;
26620;SDS011;14253;44.840;10.444;2023-07-09T03:03:52;7.88;;;6.32;;
26620;SDS011;14253;44.840;10.444;2023-07-09T03:06:20;13.00;;;7.32;;
26620;SDS011;14253;44.840;10.444;2023-07-09T03:08:47;12.93;;;7.22;;
26620;SDS011;14253;44.840;10.444;2023-07-09T03:11:13;11.18;;;6.80;;
26620;SDS011;14253;44.840;10.444;2023-07-09T03:13:40;11.60;;;6.38;;
26620;SDS011;14253;44.840;10.444;2023-07-09T03:16:06;12.18;;;7.60;;
26620;SDS011;14253;44.840;10.444;2023-07-09T03:18:33;11.95;;;7.30;;
26620;SDS011;14253;44.840;10.444;2023-07-09T03:20:59;11.52;;;7.20;;
26620;SDS011;14253;44.840;10.444;2023-07-09T03:23:25;8.20;;;6.22;;
26620;SDS011;14253;44.840;10.444;2023-07-09T03:25:52;8.95;;;6.75;;
26620;SDS011;14253;44.840;10.444;2023-07-09T03:28:19;8.82;;;6.50;;
26620;SDS011;14253;44.840;10.444;2023-07-09T03:30:46;9.02;;;6.60;;
26620;SDS011;14253;44.840;10.444;2023-07-09T03:33:14;9.70;;;6.53;;
26620;SDS011;14253;44.840;10.444;2023-07-09T03:35:41;11.15;;;5.68;;
26620;SDS011;14253;44.840;10.444;2023-07-09T03:38:08;9.85;;;6.85;;
26620;SDS011;14253;44.840;10.444;2023-07-09T03:40:35;15.27;;;7.40;;
26620;SDS011;14253;44.840;10.444;2023-07-09T03:43:05;12.85;;;6.93;;
26620;SDS011;14253;44.840;10.444;2023-07-09T03:45:33;9.93;;;6.93;;
26620;SDS011;14253;44.840;10.444;2023-07-09T03:48:00;10.68;;;7.32;;
26620;SDS011;14253;44.840;10.444;2023-07-09T03:50:27;10.00;;;7.40;;
26620;SDS011;14253;44.840;10.444;2023-07-09T03:52:53;11.30;;;7.75;;
26620;SDS011;14253;44.840;10.444;2023-07-09T03:55:19;14.25;;;7.13;;
26620;SDS011;14253;44.840;10.444;2023-07-09T03:57:46;9.85;;;6.93;;
26620;SDS011;14253;44.840;10.444;2023-07-09T04:00:12;8.07;;;6.72;;
26620;SDS011;14253;44.840;10.444;2023-07-09T04:02:42;10.73;;;6.70;;
26620;SDS011;14253;44.840;10.444;2023-07-09T04:05:10;11.68;;;6.60;;
26620;SDS011;14253;44.840;10.444;2023-07-09T04:07:36;10.38;;;6.93;;
26620;SDS011;14253;44.840;10.444;2023-07-09T04:10:03;11.77;;;7.47;;
26620;SDS011;14253;44.840;10.444;2023-07-09T04:12:30;8.48;;;6.38;;
26620;SDS011;14253;44.840;10.444;2023-07-09T04:14:56;12.40;;;7.15;;
26620;SDS011;14253;44.840;10.444;2023-07-09T04:17:22;9.88;;;7.10;;
26620;SDS011;14253;44.840;10.444;2023-07-09T04:19:49;9.43;;;6.55;;
26620;SDS011;14253;44.840;10.444;2023-07-09T04:22:15;10.40;;;6.97;;
26620;SDS011;14253;44.840;10.444;2023-07-09T04:24:41;11.57;;;7.57;;
26620;SDS011;14253;44.840;10.444;2023-07-09T04:27:08;10.95;;;6.90;;
26620;SDS011;14253;44.840;10.444;2023-07-09T04:29:34;10.88;;;7.50;;
26620;SDS011;14253;44.840;10.444;2023-07-09T04:32:01;9.15;;;6.90;;
26620;SDS011;14253;44.840;10.444;2023-07-09T04:34:28;9.88;;;7.10;;
26620;SDS011;14253;44.840;10.444;2023-07-09T04:36:53;12.90;;;6.63;;
26620;SDS011;14253;44.840;10.444;2023-07-09T04:39:19;10.95;;;7.20;;
26620;SDS011;14253;44.840;10.444;2023-07-09T04:41:46;22.75;;;9.10;;
26620;SDS011;14253;44.840;10.444;2023-07-09T04:44:12;11.10;;;7.63;;
26620;SDS011;14253;44.840;10.444;2023-07-09T04:46:38;13.15;;;7.20;;
26620;SDS011;14253;44.840;10.444;2023-07-09T04:49:04;10.25;;;7.47;;
26620;SDS011;14253;44.840;10.444;2023-07-09T04:51:30;18.40;;;8.52;;
26620;SDS011;14253;44.840;10.444;2023-07-09T04:53:57;11.95;;;7.53;;
26620;SDS011;14253;44.840;10.444;2023-07-09T04:56:23;14.80;;;7.45;;
26620;SDS011;14253;44.840;10.444;2023-07-09T04:58:49;11.43;;;7.47;;
26620;SDS011;14253;44.840;10.444;2023-07-09T05:01:15;12.38;;;8.02;;
26620;SDS011;14253;44.840;10.444;2023-07-09T05:03:41;13.95;;;8.02;;
26620;SDS011;14253;44.840;10.444;2023-07-09T05:06:07;10.95;;;7.80;;
26620;SDS011;14253;44.840;10.444;2023-07-09T05:08:32;9.02;;;7.53;;
26620;SDS011;14253;44.840;10.444;2023-07-09T05:10:58;13.05;;;7.57;;
26620;SDS011;14253;44.840;10.444;2023-07-09T05:13:24;13.82;;;7.00;;
26620;SDS011;14253;44.840;10.444;2023-07-09T05:15:50;11.23;;;7.38;;
26620;SDS011;14253;44.840;10.444;2023-07-09T05:18:17;11.75;;;7.10;;
26620;SDS011;14253;44.840;10.444;2023-07-09T05:20:46;12.13;;;7.45;;
26620;SDS011;14253;44.840;10.444;2023-07-09T05:23:12;10.98;;;7.22;;
26620;SDS011;14253;44.840;10.444;2023-07-09T05:25:38;10.07;;;7.10;;
26620;SDS011;14253;44.840;10.444;2023-07-09T05:28:04;12.23;;;7.03;;
26620;SDS011;14253;44.840;10.444;2023-07-09T05:30:31;13.48;;;7.35;;
26620;SDS011;14253;44.840;10.444;2023-07-09T05:32:57;13.25;;;8.65;;
26620;SDS011;14253;44.840;10.444;2023-07-09T05:35:25;11.52;;;7.00;;
26620;SDS011;14253;44.840;10.444;2023-07-09T05:37:55;19.08;;;8.23;;
26620;SDS011;14253;44.840;10.444;2023-07-09T05:40:21;9.13;;;7.30;;
26620;SDS011;14253;44.840;10.444;2023-07-09T05:42:48;13.65;;;7.93;;
26620;SDS011;14253;44.840;10.444;2023-07-09T05:45:14;11.00;;;7.45;;
26620;SDS011;14253;44.840;10.444;2023-07-09T05:47:41;10.82;;;8.20;;
26620;SDS011;14253;44.840;10.444;2023-07-09T05:50:07;17.13;;;8.65;;
26620;SDS011;14253;44.840;10.444;2023-07-09T05:52:34;11.35;;;8.23;;
26620;SDS011;14253;44.840;10.444;2023-07-09T05:55:00;14.95;;;8.32;;
26620;SDS011;14253;44.840;10.444;2023-07-09T05:57:26;13.27;;;8.05;;
26620;SDS011;14253;44.840;10.444;2023-07-09T05:59:52;12.80;;;9.00;;
26620;SDS011;14253;44.840;10.444;2023-07-09T06:02:19;13.30;;;9.18;;
26620;SDS011;14253;44.840;10.444;2023-07-09T06:04:46;15.30;;;11.45;;
26620;SDS011;14253;44.840;10.444;2023-07-09T06:07:16;21.27;;;11.15;;
26620;SDS011;14253;44.840;10.444;2023-07-09T06:09:44;18.52;;;11.27;;
26620;SDS011;14253;44.840;10.444;2023-07-09T06:12:13;14.95;;;10.57;;
26620;SDS011;14253;44.840;10.444;2023-07-09T06:14:39;13.93;;;10.95;;
26620;SDS011;14253;44.840;10.444;2023-07-09T06:17:05;17.27;;;11.23;;
26620;SDS011;14253;44.840;10.444;2023-07-09T06:19:31;17.52;;;11.23;;
26620;SDS011;14253;44.840;10.444;2023-07-09T06:21:56;15.45;;;11.18;;
26620;SDS011;14253;44.840;10.444;2023-07-09T06:24:23;32.53;;;14.18;;
26620;SDS011;14253;44.840;10.444;2023-07-09T06:26:49;22.90;;;15.13;;
26620;SDS011;14253;44.840;10.444;2023-07-09T06:29:15;22.40;;;13.75;;
26620;SDS011;14253;44.840;10.444;2023-07-09T06:31:41;19.52;;;13.13;;
26620;SDS011;14253;44.840;10.444;2023-07-09T06:34:08;20.25;;;14.90;;
26620;SDS011;14253;44.840;10.444;2023-07-09T06:36:35;20.95;;;15.23;;
26620;SDS011;14253;44.840;10.444;2023-07-09T06:39:01;19.13;;;14.73;;
26620;SDS011;14253;44.840;10.444;2023-07-09T06:41:28;22.98;;;13.70;;
26620;SDS011;14253;44.840;10.444;2023-07-09T06:43:54;18.50;;;14.27;;
26620;SDS011;14253;44.840;10.444;2023-07-09T06:46:20;19.17;;;13.95;;
26620;SDS011;14253;44.840;10.444;2023-07-09T06:48:46;18.80;;;12.75;;
26620;SDS011;14253;44.840;10.444;2023-07-09T06:51:13;16.27;;;12.20;;
26620;SDS011;14253;44.840;10.444;2023-07-09T06:53:38;19.13;;;13.30;;
26620;SDS011;14253;44.840;10.444;2023-07-09T06:56:05;20.45;;;12.55;;
26620;SDS011;14253;44.840;10.444;2023-07-09T06:58:31;19.05;;;12.65;;
26620;SDS011;14253;44.840;10.444;2023-07-09T07:01:00;20.63;;;12.50;;
26620;SDS011;14253;44.840;10.444;2023-07-09T07:03:29;20.33;;;12.50;;
26620;SDS011;14253;44.840;10.444;2023-07-09T07:05:55;18.98;;;12.38;;
26620;SDS011;14253;44.840;10.444;2023-07-09T07:08:23;19.80;;;12.20;;
26620;SDS011;14253;44.840;10.444;2023-07-09T07:10:50;15.00;;;10.52;;
26620;SDS011;14253;44.840;10.444;2023-07-09T07:13:31;18.90;;;11.32;;
26620;SDS011;14253;44.840;10.444;2023-07-09T07:16:00;20.08;;;11.00;;
26620;SDS011;14253;44.840;10.444;2023-07-09T07:18:30;17.38;;;11.77;;
26620;SDS011;14253;44.840;10.444;2023-07-09T07:20:56;16.27;;;11.82;;
26620;SDS011;14253;44.840;10.444;2023-07-09T07:23:22;18.15;;;12.20;;
26620;SDS011;14253;44.840;10.444;2023-07-09T07:25:49;13.63;;;9.60;;
26620;SDS011;14253;44.840;10.444;2023-07-09T07:28:15;13.88;;;10.57;;
26620;SDS011;14253;44.840;10.444;2023-07-09T07:30:42;14.35;;;10.18;;
26620;SDS011;14253;44.840;10.444;2023-07-09T07:33:08;16.10;;;11.68;;
26620;SDS011;14253;44.840;10.444;2023-07-09T07:35:34;12.45;;;10.57;;
26620;SDS011;14253;44.840;10.444;2023-07-09T07:38:00;16.85;;;11.63;;
26620;SDS011;14253;44.840;10.444;2023-07-09T07:40:25;14.88;;;10.45;;
26620;SDS011;14253;44.840;10.444;2023-07-09T07:42:51;14.43;;;9.45;;
26620;SDS011;14253;44.840;10.444;2023-07-09T07:45:17;13.43;;;9.27;;
26620;SDS011;14253;44.840;10.444;2023-07-09T07:47:44;16.42;;;9.25;;
26620;SDS011;14253;44.840;10.444;2023-07-09T07:50:10;16.75;;;10.52;;
26620;SDS011;14253;44.840;10.444;2023-07-09T07:52:36;14.32;;;10.75;;
26620;SDS011;14253;44.840;10.444;2023-07-09T07:55:06;13.32;;;10.90;;
26620;SDS011;14253;44.840;10.444;2023-07-09T07:59:59;14.40;;;11.93;;
26620;SDS011;14253;44.840;10.444;2023-07-09T08:02:25;22.75;;;12.43;;
26620;SDS011;14253;44.840;10.444;2023-07-09T08:04:51;19.02;;;12.05;;
26620;SDS011;14253;44.840;10.444;2023-07-09T08:07:18;18.48;;;12.63;;
26620;SDS011;14253;44.840;10.444;2023-07-09T08:09:45;16.80;;;11.73;;
26620;SDS011;14253;44.840;10.444;2023-07-09T08:12:12;15.65;;;11.82;;
26620;SDS011;14253;44.840;10.444;2023-07-09T08:14:39;14.77;;;9.57;;
26620;SDS011;14253;44.840;10.444;2023-07-09T08:17:07;17.35;;;11.07;;
26620;SDS011;14253;44.840;10.444;2023-07-09T08:19:43;16.50;;;10.93;;
26620;SDS011;14253;44.840;10.444;2023-07-09T08:22:15;19.75;;;10.27;;
26620;SDS011;14253;44.840;10.444;2023-07-09T08:24:42;13.18;;;10.43;;
26620;SDS011;14253;44.840;10.444;2023-07-09T08:27:08;15.35;;;10.70;;
26620;SDS011;14253;44.840;10.444;2023-07-09T08:29:35;17.13;;;11.02;;
26620;SDS011;14253;44.840;10.444;2023-07-09T08:32:01;14.48;;;11.07;;
26620;SDS011;14253;44.840;10.444;2023-07-09T08:34:28;13.43;;;9.93;;
26620;SDS011;14253;44.840;10.444;2023-07-09T08:36:54;19.80;;;11.65;;
26620;SDS011;14253;44.840;10.444;2023-07-09T08:39:20;14.43;;;9.07;;
26620;SDS011;14253;44.840;10.444;2023-07-09T08:42:02;15.88;;;10.07;;
26620;SDS011;14253;44.840;10.444;2023-07-09T08:44:37;19.08;;;13.65;;
26620;SDS011;14253;44.840;10.444;2023-07-09T08:50:07;21.25;;;10.13;;
26620;SDS011;14253;44.840;10.444;2023-07-09T08:52:41;20.13;;;11.48;;
26620;SDS011;14253;44.840;10.444;2023-07-09T08:55:11;15.50;;;9.35;;
26620;SDS011;14253;44.840;10.444;2023-07-09T09:00:12;17.05;;;11.05;;
26620;SDS011;14253;44.840;10.444;2023-07-09T09:02:42;11.48;;;7.68;;
26620;SDS011;14253;44.840;10.444;2023-07-09T09:05:19;14.70;;;9.13;;
26620;SDS011;14253;44.840;10.444;2023-07-09T09:07:49;13.80;;;8.80;;
26620;SDS011;14253;44.840;10.444;2023-07-09T09:10:39;13.43;;;9.00;;
26620;SDS011;14253;44.840;10.444;2023-07-09T09:13:12;16.38;;;9.90;;
26620;SDS011;14253;44.840;10.444;2023-07-09T09:15:41;16.13;;;9.40;;
26620;SDS011;14253;44.840;10.444;2023-07-09T09:18:24;13.88;;;8.77;;
26620;SDS011;14253;44.840;10.444;2023-07-09T09:20:53;15.05;;;9.45;;
26620;SDS011;14253;44.840;10.444;2023-07-09T09:23:36;15.93;;;8.48;;
26620;SDS011;14253;44.840;10.444;2023-07-09T09:26:06;21.92;;;9.35;;
26620;SDS011;14253;44.840;10.444;2023-07-09T09:28:41;13.82;;;7.93;;
26620;SDS011;14253;44.840;10.444;2023-07-09T09:31:09;9.82;;;7.00;;
26620;SDS011;14253;44.840;10.444;2023-07-09T09:33:43;14.98;;;6.70;;
26620;SDS011;14253;44.840;10.444;2023-07-09T09:36:29;10.20;;;7.15;;
26620;SDS011;14253;44.840;10.444;2023-07-09T09:39:01;13.50;;;6.82;;
26620;SDS011;14253;44.840;10.444;2023-07-09T09:41:30;11.95;;;6.47;;
26620;SDS011;14253;44.840;10.444;2023-07-09T09:44:01;12.13;;;6.88;;
26620;SDS011;14253;44.840;10.444;2023-07-09T09:46:27;10.75;;;7.53;;
26620;SDS011;14253;44.840;10.444;2023-07-09T09:48:59;14.38;;;6.28;;
26620;SDS011;14253;44.840;10.444;2023-07-09T09:51:26;14.80;;;6.95;;
26620;SDS011;14253;44.840;10.444;2023-07-09T09:53:57;10.98;;;7.30;;
26620;SDS011;14253;44.840;10.444;2023-07-09T09:56:26;11.45;;;7.00;;
26620;SDS011;14253;44.840;10.444;2023-07-09T09:59:01;11.23;;;6.47;;
26620;SDS011;14253;44.840;10.444;2023-07-09T10:01:35;19.15;;;7.53;;
26620;SDS011;14253;44.840;10.444;2023-07-09T10:04:02;11.27;;;6.07;;
26620;SDS011;14253;44.840;10.444;2023-07-09T10:09:19;9.02;;;6.38;;
26620;SDS011;14253;44.840;10.444;2023-07-09T10:15:05;7.30;;;5.40;;
26620;SDS011;14253;44.840;10.444;2023-07-09T10:17:42;8.55;;;5.38;;
26620;SDS011;14253;44.840;10.444;2023-07-09T10:20:24;10.65;;;5.80;;
26620;SDS011;14253;44.840;10.444;2023-07-09T10:23:13;11.27;;;5.30;;
26620;SDS011;14253;44.840;10.444;2023-07-09T10:25:54;12.70;;;5.13;;
26620;SDS011;14253;44.840;10.444;2023-07-09T10:28:45;7.65;;;5.18;;
26620;SDS011;14253;44.840;10.444;2023-07-09T10:31:36;7.97;;;5.10;;
26620;SDS011;14253;44.840;10.444;2023-07-09T10:34:34;10.48;;;5.55;;
26620;SDS011;14253;44.840;10.444;2023-07-09T10:37:28;6.43;;;4.68;;
26620;SDS011;14253;44.840;10.444;2023-07-09T10:42:25;8.68;;;5.47;;
26620;SDS011;14253;44.840;10.444;2023-07-09T10:47:30;10.77;;;6.28;;
26620;SDS011;14253;44.840;10.444;2023-07-09T10:50:01;12.27;;;5.72;;
26620;SDS011;14253;44.840;10.444;2023-07-09T10:52:30;12.68;;;5.70;;
26620;SDS011;14253;44.840;10.444;2023-07-09T11:00:41;9.65;;;6.13;;
26620;SDS011;14253;44.840;10.444;2023-07-09T11:03:15;8.88;;;5.75;;
26620;SDS011;14253;44.840;10.444;2023-07-09T11:08:16;10.25;;;5.20;;
26620;SDS011;14253;44.840;10.444;2023-07-09T11:10:59;8.48;;;5.28;;
26620;SDS011;14253;44.840;10.444;2023-07-09T11:13:37;11.02;;;5.93;;
26620;SDS011;14253;44.840;10.444;2023-07-09T11:16:08;5.50;;;4.60;;
26620;SDS011;14253;44.840;10.444;2023-07-09T11:18:41;8.10;;;4.72;;
26620;SDS011;14253;44.840;10.444;2023-07-09T11:21:17;10.20;;;5.45;;
26620;SDS011;14253;44.840;10.444;2023-07-09T11:23:45;7.22;;;4.75;;
26620;SDS011;14253;44.840;10.444;2023-07-09T11:26:26;7.18;;;4.75;;
26620;SDS011;14253;44.840;10.444;2023-07-09T11:28:55;10.88;;;5.00;;
26620;SDS011;14253;44.840;10.444;2023-07-09T11:31:35;10.73;;;5.18;;
26620;SDS011;14253;44.840;10.444;2023-07-09T11:42:02;10.63;;;5.03;;
26620;SDS011;14253;44.840;10.444;2023-07-09T11:44:30;10.93;;;5.43;;
26620;SDS011;14253;44.840;10.444;2023-07-09T11:46:59;9.15;;;5.38;;
26620;SDS011;14253;44.840;10.444;2023-07-09T11:49:55;6.32;;;4.75;;
26620;SDS011;14253;44.840;10.444;2023-07-09T11:55:21;7.75;;;4.60;;
26620;SDS011;14253;44.840;10.444;2023-07-09T11:58:08;5.90;;;4.40;;
26620;SDS011;14253;44.840;10.444;2023-07-09T12:00:40;11.52;;;5.10;;
26620;SDS011;14253;44.840;10.444;2023-07-09T12:03:20;8.35;;;4.35;;
26620;SDS011;14253;44.840;10.444;2023-07-09T12:05:53;8.30;;;4.80;;
26620;SDS011;14253;44.840;10.444;2023-07-09T12:11:04;10.57;;;4.85;;
26620;SDS011;14253;44.840;10.444;2023-07-09T12:13:37;12.98;;;4.80;;
26620;SDS011;14253;44.840;10.444;2023-07-09T12:16:03;10.15;;;4.63;;
26620;SDS011;14253;44.840;10.444;2023-07-09T12:18:43;9.27;;;4.88;;
26620;SDS011;14253;44.840;10.444;2023-07-09T12:21:09;6.80;;;4.75;;
26620;SDS011;14253;44.840;10.444;2023-07-09T12:23:35;11.90;;;4.80;;
26620;SDS011;14253;44.840;10.444;2023-07-09T12:26:02;8.48;;;4.35;;
26620;SDS011;14253;44.840;10.444;2023-07-09T12:28:29;7.80;;;4.88;;
26620;SDS011;14253;44.840;10.444;2023-07-09T12:30:56;9.20;;;4.63;;
26620;SDS011;14253;44.840;10.444;2023-07-09T12:33:23;7.65;;;4.50;;
26620;SDS011;14253;44.840;10.444;2023-07-09T12:35:58;8.43;;;4.78;;
26620;SDS011;14253;44.840;10.444;2023-07-09T12:38:27;11.20;;;5.43;;
26620;SDS011;14253;44.840;10.444;2023-07-09T12:40:55;9.25;;;5.30;;
26620;SDS011;14253;44.840;10.444;2023-07-09T12:43:26;12.27;;;6.03;;
26620;SDS011;14253;44.840;10.444;2023-07-09T12:45:53;11.75;;;4.57;;
26620;SDS011;14253;44.840;10.444;2023-07-09T12:48:24;8.13;;;4.45;;
26620;SDS011;14253;44.840;10.444;2023-07-09T12:50:54;8.30;;;4.72;;
26620;SDS011;14253;44.840;10.444;2023-07-09T12:53:24;7.03;;;4.10;;
26620;SDS011;14253;44.840;10.444;2023-07-09T12:55:54;5.60;;;4.30;;
26620;SDS011;14253;44.840;10.444;2023-07-09T12:58:23;8.23;;;4.30;;
26620;SDS011;14253;44.840;10.444;2023-07-09T13:00:51;9.48;;;4.43;;
26620;SDS011;14253;44.840;10.444;2023-07-09T13:03:25;7.10;;;4.47;;
26620;SDS011;14253;44.840;10.444;2023-07-09T13:05:53;6.82;;;4.78;;
26620;SDS011;14253;44.840;10.444;2023-07-09T13:08:24;8.10;;;5.00;;
26620;SDS011;14253;44.840;10.444;2023-07-09T13:10:52;10.18;;;4.68;;
26620;SDS011;14253;44.840;10.444;2023-07-09T13:13:20;8.63;;;4.18;;
26620;SDS011;14253;44.840;10.444;2023-07-09T13:15:48;9.65;;;4.20;;
26620;SDS011;14253;44.840;10.444;2023-07-09T13:20:43;9.60;;;4.45;;
26620;SDS011;14253;44.840;10.444;2023-07-09T13:23:15;6.22;;;4.20;;
26620;SDS011;14253;44.840;10.444;2023-07-09T13:25:47;8.35;;;4.90;;
26620;SDS011;14253;44.840;10.444;2023-07-09T13:28:16;8.70;;;4.05;;
26620;SDS011;14253;44.840;10.444;2023-07-09T13:30:50;8.25;;;4.13;;
26620;SDS011;14253;44.840;10.444;2023-07-09T13:33:17;5.22;;;3.88;;
26620;SDS011;14253;44.840;10.444;2023-07-09T13:35:44;9.13;;;4.65;;
26620;SDS011;14253;44.840;10.444;2023-07-09T13:38:14;7.78;;;3.70;;
26620;SDS011;14253;44.840;10.444;2023-07-09T13:40:42;5.75;;;3.95;;
26620;SDS011;14253;44.840;10.444;2023-07-09T13:43:13;7.68;;;4.90;;
26620;SDS011;14253;44.840;10.444;2023-07-09T13:45:40;10.07;;;4.18;;
26620;SDS011;14253;44.840;10.444;2023-07-09T13:48:25;6.07;;;4.55;;
26620;SDS011;14253;44.840;10.444;2023-07-09T13:50:52;7.10;;;4.70;;
26620;SDS011;14253;44.840;10.444;2023-07-09T13:53:20;8.38;;;4.22;;
26620;SDS011;14253;44.840;10.444;2023-07-09T13:55:48;8.30;;;4.35;;
26620;SDS011;14253;44.840;10.444;2023-07-09T13:58:17;11.13;;;4.53;;
26620;SDS011;14253;44.840;10.444;2023-07-09T14:00:45;8.80;;;4.28;;
26620;SDS011;14253;44.840;10.444;2023-07-09T14:03:14;7.53;;;4.75;;
26620;SDS011;14253;44.840;10.444;2023-07-09T14:05:43;6.82;;;4.70;;
26620;SDS011;14253;44.840;10.444;2023-07-09T14:08:10;9.23;;;4.78;;
26620;SDS011;14253;44.840;10.444;2023-07-09T14:10:37;8.32;;;4.97;;
26620;SDS011;14253;44.840;10.444;2023-07-09T14:13:03;7.03;;;4.20;;
26620;SDS011;14253;44.840;10.444;2023-07-09T14:15:29;5.65;;;4.30;;
26620;SDS011;14253;44.840;10.444;2023-07-09T14:17:55;6.80;;;4.55;;
26620;SDS011;14253;44.840;10.444;2023-07-09T14:20:22;8.25;;;4.05;;
26620;SDS011;14253;44.840;10.444;2023-07-09T14:22:48;5.45;;;4.45;;
26620;SDS011;14253;44.840;10.444;2023-07-09T14:25:17;7.35;;;4.88;;
26620;SDS011;14253;44.840;10.444;2023-07-09T14:27:45;5.68;;;4.65;;
26620;SDS011;14253;44.840;10.444;2023-07-09T14:30:15;7.47;;;4.35;;
26620;SDS011;14253;44.840;10.444;2023-07-09T14:32:44;5.78;;;3.97;;
26620;SDS011;14253;44.840;10.444;2023-07-09T14:37:43;5.60;;;4.28;;
26620;SDS011;14253;44.840;10.444;2023-07-09T14:40:10;7.13;;;4.47;;
26620;SDS011;14253;44.840;10.444;2023-07-09T14:42:38;9.80;;;4.40;;
26620;SDS011;14253;44.840;10.444;2023-07-09T14:45:09;7.45;;;4.18;;
26620;SDS011;14253;44.840;10.444;2023-07-09T14:47:46;7.85;;;4.65;;
26620;SDS011;14253;44.840;10.444;2023-07-09T14:50:12;11.85;;;4.85;;
26620;SDS011;14253;44.840;10.444;2023-07-09T14:52:40;7.88;;;5.10;;
26620;SDS011;14253;44.840;10.444;2023-07-09T14:55:16;8.95;;;4.35;;
26620;SDS011;14253;44.840;10.444;2023-07-09T14:57:45;7.15;;;4.70;;
26620;SDS011;14253;44.840;10.444;2023-07-09T15:00:12;10.20;;;4.47;;
26620;SDS011;14253;44.840;10.444;2023-07-09T15:02:46;7.95;;;4.50;;
26620;SDS011;14253;44.840;10.444;2023-07-09T15:05:22;7.40;;;4.65;;
26620;SDS011;14253;44.840;10.444;2023-07-09T15:07:49;6.28;;;4.20;;
26620;SDS011;14253;44.840;10.444;2023-07-09T15:10:23;6.28;;;4.28;;
26620;SDS011;14253;44.840;10.444;2023-07-09T15:12:51;8.40;;;4.30;;
26620;SDS011;14253;44.840;10.444;2023-07-09T15:15:20;6.20;;;4.00;;
26620;SDS011;14253;44.840;10.444;2023-07-09T15:17:57;8.55;;;4.63;;
26620;SDS011;14253;44.840;10.444;2023-07-09T15:20:27;7.65;;;4.25;;
26620;SDS011;14253;44.840;10.444;2023-07-09T15:22:55;7.35;;;4.50;;
26620;SDS011;14253;44.840;10.444;2023-07-09T15:25:26;9.52;;;4.38;;